createdAt,value
2019-06-20T00:00:52.563Z,80.40
2019-06-20T00:03:21.042Z,80.80
2019-06-20T00:05:47.997Z,81.00
2019-06-20T00:08:14.947Z,81.40
2019-06-20T00:10:41.894Z,81.40
2019-06-20T00:13:08.855Z,81.30
2019-06-20T00:19:09.150Z,81.20
2019-06-20T00:21:36.128Z,81.30
2019-06-20T00:24:04.110Z,81.90
2019-06-20T00:26:31.063Z,82.10
2019-06-20T00:28:58.325Z,82.40
2019-06-20T00:31:26.555Z,82.30
2019-06-20T00:33:53.687Z,82.00
2019-06-20T00:36:20.645Z,82.00
2019-06-20T00:38:48.177Z,82.20
2019-06-20T00:41:15.123Z,82.60
2019-06-20T00:43:42.128Z,83.30
2019-06-20T00:46:10.083Z,83.70
2019-06-20T00:48:37.033Z,83.10
2019-06-20T00:51:04.001Z,83.20
2019-06-20T00:53:30.972Z,83.30
2019-06-20T00:55:57.939Z,82.80
2019-06-20T00:58:24.942Z,82.90
2019-06-20T01:00:51.901Z,83.10
2019-06-20T01:03:18.833Z,82.90
2019-06-20T01:05:45.805Z,82.90
2019-06-20T01:08:12.756Z,83.00
2019-06-20T01:14:13.163Z,83.30
2019-06-20T01:16:40.128Z,83.70
2019-06-20T01:19:07.096Z,83.70
2019-06-20T01:21:34.060Z,83.90
2019-06-20T01:24:01.003Z,83.90
2019-06-20T01:26:27.980Z,84.10
2019-06-20T01:28:54.960Z,84.20
2019-06-20T01:31:21.936Z,83.90
2019-06-20T01:33:48.880Z,83.60
2019-06-20T01:36:15.853Z,83.50
2019-06-20T01:38:42.807Z,83.50
2019-06-20T01:41:10.256Z,83.10
2019-06-20T01:43:50.263Z,83.20
2019-06-20T01:46:05.993Z,83.70
2019-06-20T01:48:32.943Z,83.90
2019-06-20T01:50:59.896Z,83.80
2019-06-20T01:53:26.826Z,83.70
2019-06-20T01:55:53.752Z,83.50
2019-06-20T01:58:20.721Z,83.60
2019-06-20T02:00:48.763Z,83.50
2019-06-20T02:03:16.035Z,83.50
2019-06-20T02:05:43.091Z,83.50
2019-06-20T02:08:10.060Z,82.80
2019-06-20T02:10:37.016Z,81.20
2019-06-20T02:13:04.197Z,81.20
2019-06-20T02:19:04.336Z,80.70
2019-06-20T02:21:31.295Z,80.90
2019-06-20T02:23:58.238Z,79.40
2019-06-20T02:26:27.944Z,78.50
2019-06-20T02:28:54.907Z,79.00
2019-06-20T02:31:21.989Z,78.80
2019-06-20T02:33:48.928Z,79.40
2019-06-20T02:36:16.148Z,79.80
2019-06-20T02:38:43.110Z,79.50
2019-06-20T02:41:10.848Z,79.30
2019-06-20T02:43:37.799Z,77.40
2019-06-20T02:46:04.770Z,76.50
2019-06-20T02:48:31.738Z,75.80
2019-06-20T02:51:00.358Z,76.80
2019-06-20T02:53:27.509Z,76.20
2019-06-20T02:55:55.215Z,76.00
2019-06-20T02:58:23.188Z,74.00
2019-06-20T03:00:56.282Z,74.30
2019-06-20T03:03:24.151Z,74.00
2019-06-20T03:05:52.109Z,74.70
2019-06-20T03:08:19.012Z,73.50
2019-06-20T03:10:45.979Z,71.30
2019-06-20T03:13:12.932Z,72.80
2019-06-20T03:15:39.924Z,71.30
2019-06-20T03:18:06.893Z,71.40
2019-06-20T03:20:33.861Z,70.00
2019-06-20T03:23:00.909Z,70.00
2019-06-20T03:25:27.879Z,70.50
2019-06-20T03:27:54.847Z,69.20
2019-06-20T03:30:22.081Z,69.10
2019-06-20T03:32:49.034Z,69.70
2019-06-20T03:35:15.996Z,68.60
2019-06-20T03:37:43.008Z,68.00
2019-06-20T03:40:11.343Z,67.60
2019-06-20T03:42:38.288Z,67.50
2019-06-20T03:45:06.235Z,67.60
2019-06-20T03:47:33.177Z,67.50
2019-06-20T03:50:00.152Z,67.50
2019-06-20T03:52:27.087Z,68.20
2019-06-20T03:54:57.092Z,67.70
2019-06-20T03:57:24.032Z,67.90
2019-06-20T03:59:51.941Z,67.60
2019-06-20T04:02:19.110Z,68.10
2019-06-20T04:04:46.144Z,67.50
2019-06-20T04:07:13.133Z,66.70
2019-06-20T04:09:40.311Z,67.90
2019-06-20T04:12:07.260Z,66.70
2019-06-20T04:14:35.050Z,67.30
2019-06-20T04:17:02.010Z,65.00
2019-06-20T04:19:28.953Z,66.00
2019-06-20T04:21:55.904Z,65.50
2019-06-20T04:24:22.925Z,65.80
2019-06-20T04:26:50.783Z,66.20
2019-06-20T04:29:17.725Z,64.90
2019-06-20T04:31:44.763Z,65.30
2019-06-20T04:34:11.744Z,65.30
2019-06-20T04:36:38.800Z,63.80
2019-06-20T04:39:18.656Z,63.80
2019-06-20T04:41:35.048Z,63.50
2019-06-20T04:44:02.104Z,62.30
2019-06-20T04:46:36.373Z,61.90
2019-06-20T04:49:03.676Z,59.20
2019-06-20T04:51:37.169Z,57.10
2019-06-20T04:54:04.382Z,58.40
2019-06-20T04:56:31.296Z,57.30
2019-06-20T04:58:58.280Z,55.60
2019-06-20T05:01:25.212Z,55.70
2019-06-20T05:03:52.972Z,55.30
2019-06-20T05:06:19.907Z,54.70
2019-06-20T05:08:46.875Z,54.40
2019-06-20T05:11:14.416Z,53.70
2019-06-20T05:13:41.796Z,54.10
2019-06-20T05:16:08.739Z,54.20
2019-06-20T05:18:36.364Z,55.20
2019-06-20T05:21:03.337Z,54.30
2019-06-20T05:23:30.361Z,53.90
2019-06-20T05:25:57.401Z,53.90
2019-06-20T05:28:24.381Z,54.50
2019-06-20T05:30:51.340Z,54.70
2019-06-20T05:33:18.359Z,54.50
2019-06-20T05:35:45.340Z,54.40
2019-06-20T05:38:12.270Z,53.10
2019-06-20T05:40:39.232Z,53.30
2019-06-20T05:43:08.047Z,53.90
2019-06-20T05:45:35.009Z,54.00
2019-06-20T05:48:01.967Z,53.40
2019-06-20T05:50:29.114Z,52.40
2019-06-20T05:52:56.143Z,53.70
2019-06-20T05:55:23.113Z,53.30
2019-06-20T05:57:50.050Z,53.50
2019-06-20T06:00:17.020Z,53.20
2019-06-20T06:02:44.783Z,53.70
2019-06-20T06:05:13.640Z,51.90
2019-06-20T06:09:21.935Z,40.10
2019-06-20T06:11:52.463Z,51.70
2019-06-20T06:14:19.615Z,53.60
2019-06-20T06:16:46.763Z,52.00
2019-06-20T06:19:13.741Z,52.30
2019-06-20T06:21:40.717Z,53.10
2019-06-20T06:24:07.914Z,52.70
2019-06-20T06:26:35.058Z,53.40
2019-06-20T06:29:02.207Z,51.80
2019-06-20T06:31:29.357Z,53.40
2019-06-20T06:33:56.508Z,53.10
2019-06-20T06:36:23.594Z,51.10
2019-06-20T06:38:50.809Z,51.40
2019-06-20T06:41:19.191Z,51.20
2019-06-20T06:43:46.207Z,51.60
2019-06-20T06:46:13.630Z,49.50
2019-06-20T06:48:40.945Z,49.10
2019-06-20T06:51:08.402Z,50.90
2019-06-20T06:53:35.552Z,47.50
2019-06-20T06:56:05.185Z,49.90
2019-06-20T06:58:32.313Z,48.80
2019-06-20T07:00:59.460Z,45.60
2019-06-20T07:03:26.612Z,47.60
2019-06-20T07:05:53.763Z,47.40
2019-06-20T07:08:20.911Z,46.00
2019-06-20T07:10:48.080Z,47.30
2019-06-20T07:13:15.087Z,46.00
2019-06-20T07:15:43.165Z,45.30
2019-06-20T07:18:10.432Z,48.70
2019-06-20T07:20:37.418Z,44.60
2019-06-20T07:23:04.361Z,44.20
2019-06-20T07:25:31.616Z,44.30
2019-06-20T07:27:58.728Z,45.30
2019-06-20T07:30:26.120Z,45.30
2019-06-20T07:32:54.114Z,45.10
2019-06-20T07:35:21.037Z,44.20
2019-06-20T07:37:48.142Z,46.10
2019-06-20T07:40:16.901Z,46.00
2019-06-20T07:42:43.992Z,46.60
2019-06-20T07:45:11.053Z,44.90
2019-06-20T07:47:38.117Z,45.70
2019-06-20T07:50:07.628Z,38.70
2019-06-20T07:52:34.690Z,37.10
2019-06-20T07:55:01.612Z,34.40
2019-06-20T07:57:28.638Z,37.30
2019-06-20T07:59:55.588Z,30.90
2019-06-20T08:02:22.592Z,35.90
2019-06-20T08:04:49.943Z,35.60
2019-06-20T08:07:48.669Z,35.60
2019-06-20T08:10:16.354Z,33.90
2019-06-20T08:12:43.311Z,34.60
2019-06-20T08:15:15.507Z,37.80
2019-06-20T08:17:40.336Z,33.60
2019-06-20T08:20:09.309Z,34.10
2019-06-20T08:22:36.247Z,34.70
2019-06-20T08:25:05.380Z,31.30
2019-06-20T08:27:51.462Z,33.10
2019-06-20T08:30:27.296Z,30.60
2019-06-20T08:32:54.353Z,31.60
2019-06-20T08:35:22.919Z,30.50
2019-06-20T08:37:50.201Z,29.60
2019-06-20T08:40:17.528Z,28.00
2019-06-20T08:42:44.492Z,27.10
2019-06-20T08:45:12.151Z,27.70
2019-06-20T08:47:39.116Z,29.80
2019-06-20T08:50:07.083Z,25.90
2019-06-20T08:52:34.041Z,30.00
2019-06-20T08:55:01.299Z,29.00
2019-06-20T08:57:28.250Z,29.00
2019-06-20T08:59:57.378Z,25.70
2019-06-20T09:02:25.310Z,25.80
2019-06-20T09:04:54.827Z,25.40
2019-06-20T09:07:21.102Z,26.60
2019-06-20T09:09:48.089Z,26.20
2019-06-20T09:12:15.121Z,27.30
2019-06-20T09:14:42.083Z,27.40
2019-06-20T09:17:10.232Z,28.10
2019-06-20T09:19:37.219Z,27.70
2019-06-20T09:22:05.019Z,27.50
2019-06-20T09:24:32.251Z,25.40
2019-06-20T09:26:59.380Z,27.10
2019-06-20T09:29:40.806Z,24.20
2019-06-20T09:31:55.644Z,27.10
2019-06-20T09:34:22.757Z,25.20
2019-06-20T09:36:52.015Z,25.40
2019-06-20T09:39:18.517Z,24.10
2019-06-20T09:41:45.488Z,25.50
2019-06-20T09:44:12.443Z,25.40
2019-06-20T09:46:39.417Z,42.40
2019-06-20T09:49:06.364Z,24.90
2019-06-20T09:51:33.341Z,24.80
2019-06-20T09:54:00.314Z,24.00
2019-06-20T09:56:27.320Z,24.80
2019-06-20T09:58:55.329Z,25.10
2019-06-20T10:01:22.556Z,24.10
2019-06-20T10:03:50.515Z,25.30
2019-06-20T10:06:17.777Z,25.00
2019-06-20T10:08:46.612Z,24.90
2019-06-20T10:11:13.512Z,25.70
2019-06-20T10:13:40.475Z,26.90
2019-06-20T10:16:07.456Z,25.50
2019-06-20T10:18:34.429Z,25.00
2019-06-20T10:21:01.372Z,24.90
2019-06-20T10:26:03.653Z,24.90
2019-06-20T10:28:31.343Z,25.20
2019-06-20T10:30:58.284Z,32.20
2019-06-20T10:33:25.239Z,25.40
2019-06-20T10:35:52.613Z,24.70
2019-06-20T10:38:19.957Z,24.90
2019-06-20T10:40:47.900Z,25.90
2019-06-20T10:43:15.221Z,25.30
2019-06-20T10:45:44.102Z,27.20
2019-06-20T10:48:10.988Z,26.80
2019-06-20T10:50:38.862Z,24.90
2019-06-20T10:53:05.830Z,27.60
2019-06-20T10:55:32.780Z,26.20
2019-06-20T10:58:00.032Z,27.80
2019-06-20T11:00:31.366Z,27.20
2019-06-20T11:02:56.568Z,28.30
2019-06-20T11:05:24.318Z,25.80
2019-06-20T11:07:51.267Z,27.60
2019-06-20T11:10:19.235Z,26.20
2019-06-20T11:12:52.327Z,29.20
2019-06-20T11:15:17.371Z,25.40
2019-06-20T11:17:44.377Z,29.40
2019-06-20T11:20:20.639Z,26.30
2019-06-20T11:22:47.968Z,31.40
2019-06-20T11:25:18.979Z,25.50
2019-06-20T11:27:44.767Z,29.10
2019-06-20T11:30:15.503Z,27.90
2019-06-20T11:32:43.506Z,31.50
2019-06-20T11:35:11.324Z,25.80
2019-06-20T11:37:39.594Z,28.10
2019-06-20T11:40:07.835Z,28.10
2019-06-20T11:42:36.023Z,30.00
2019-06-20T11:45:05.466Z,29.90
2019-06-20T11:47:32.532Z,30.00
2019-06-20T11:50:01.079Z,32.30
2019-06-20T11:52:28.057Z,31.00
2019-06-20T11:54:55.013Z,32.20
2019-06-20T11:57:28.074Z,35.20
2019-06-20T11:59:55.015Z,34.10
2019-06-20T12:02:21.936Z,34.50
2019-06-20T12:04:49.150Z,30.90
2019-06-20T12:07:16.356Z,33.10
2019-06-20T12:09:44.219Z,33.60
2019-06-20T12:12:11.340Z,33.80
2019-06-20T12:14:39.716Z,38.20
2019-06-20T12:17:13.217Z,39.80
2019-06-20T12:19:40.875Z,38.80
2019-06-20T12:22:08.250Z,38.00
2019-06-20T12:24:35.199Z,39.60
2019-06-20T12:27:03.142Z,39.60
2019-06-20T12:29:30.123Z,41.50
2019-06-20T12:31:57.083Z,40.10
2019-06-20T12:34:24.064Z,42.20
2019-06-20T12:36:50.999Z,42.60
2019-06-20T12:39:17.947Z,42.60
2019-06-20T12:41:45.611Z,42.30
2019-06-20T12:44:12.888Z,41.50
2019-06-20T12:46:40.936Z,41.00
2019-06-20T12:49:08.092Z,41.40
2019-06-20T12:51:35.058Z,40.10
2019-06-20T12:54:02.020Z,38.90
2019-06-20T12:56:28.980Z,40.90
2019-06-20T12:58:56.884Z,40.10
2019-06-20T13:01:35.609Z,39.60
2019-06-20T13:03:55.863Z,33.40
2019-06-20T13:06:22.811Z,35.70
2019-06-20T13:08:49.769Z,38.60
2019-06-20T13:11:16.729Z,34.50
2019-06-20T13:13:44.410Z,36.30
2019-06-20T13:16:11.640Z,39.10
2019-06-20T13:18:39.658Z,38.50
2019-06-20T13:21:07.737Z,39.60
2019-06-20T13:23:34.888Z,41.50
2019-06-20T13:26:02.043Z,42.10
2019-06-20T13:28:29.039Z,42.50
2019-06-20T13:30:56.042Z,42.50
2019-06-20T13:33:23.138Z,42.50
2019-06-20T13:35:50.891Z,42.90
2019-06-20T13:38:18.159Z,42.90
2019-06-20T13:40:45.353Z,44.00
2019-06-20T13:43:12.437Z,43.50
2019-06-20T13:45:41.183Z,43.40
2019-06-20T13:48:08.626Z,41.00
2019-06-20T13:50:35.785Z,42.30
2019-06-20T13:53:02.719Z,41.80
2019-06-20T13:55:30.140Z,43.30
2019-06-20T13:57:57.092Z,41.40
2019-06-20T14:00:27.245Z,41.80
2019-06-20T14:02:54.204Z,42.60
2019-06-20T14:05:21.171Z,43.40
2019-06-20T14:07:53.261Z,44.30
2019-06-20T14:10:17.255Z,45.30
2019-06-20T14:12:44.730Z,46.50
2019-06-20T14:15:13.196Z,46.00
2019-06-20T14:17:41.518Z,48.40
2019-06-20T14:20:09.047Z,52.10
2019-06-20T14:22:36.004Z,48.90
2019-06-20T14:25:05.520Z,51.50
2019-06-20T14:27:35.004Z,55.50
2019-06-20T14:30:01.228Z,65.20
2019-06-20T14:32:28.181Z,61.60
2019-06-20T14:34:55.135Z,61.70
2019-06-20T14:37:22.084Z,67.20
2019-06-20T14:39:50.938Z,63.10
2019-06-20T14:42:17.808Z,62.90
2019-06-20T14:44:45.967Z,62.20
2019-06-20T14:47:13.441Z,64.10
2019-06-20T14:49:40.409Z,65.60
2019-06-20T14:52:07.357Z,70.10
2019-06-20T14:54:34.337Z,66.40
2019-06-20T14:57:01.268Z,71.30
2019-06-20T14:59:28.241Z,72.20
2019-06-20T15:01:55.537Z,70.70
2019-06-20T15:04:22.572Z,68.60
2019-06-20T15:06:50.453Z,67.90
2019-06-20T15:09:17.969Z,62.50
2019-06-20T15:11:46.514Z,62.10
2019-06-20T15:14:13.688Z,63.30
2019-06-20T15:16:41.763Z,63.90
2019-06-20T15:19:08.736Z,60.80
2019-06-20T15:21:35.704Z,57.10
2019-06-20T15:24:02.641Z,60.40
2019-06-20T15:26:29.607Z,62.40
2019-06-20T15:28:57.050Z,64.30
2019-06-20T15:31:24.235Z,62.30
2019-06-20T15:33:51.604Z,64.60
2019-06-20T15:36:20.458Z,61.90
2019-06-20T15:38:48.206Z,63.80
2019-06-20T15:41:16.413Z,66.20
2019-06-20T15:43:43.419Z,67.80
2019-06-20T15:46:10.516Z,65.90
2019-06-20T15:48:37.639Z,69.20
2019-06-20T15:51:04.629Z,66.50
2019-06-20T15:53:31.571Z,65.60
2019-06-20T15:55:58.540Z,67.50
2019-06-20T15:58:26.596Z,67.10
2019-06-20T16:00:53.586Z,68.60
2019-06-20T16:03:20.552Z,67.80
2019-06-20T16:05:47.499Z,68.40
2019-06-20T16:08:14.449Z,70.00
2019-06-20T16:10:41.418Z,69.90
2019-06-20T16:13:08.373Z,70.30
2019-06-20T16:15:35.386Z,67.80
2019-06-20T16:18:02.610Z,69.20
2019-06-20T16:20:29.799Z,71.10
2019-06-20T16:22:58.033Z,70.10
2019-06-20T16:25:24.979Z,71.10
2019-06-20T16:27:51.942Z,69.60
2019-06-20T16:30:19.714Z,69.90
2019-06-20T16:32:46.688Z,69.60
2019-06-20T16:35:16.139Z,67.70
2019-06-20T16:37:43.335Z,70.30
2019-06-20T16:40:12.808Z,70.60
2019-06-20T16:42:40.474Z,72.30
2019-06-20T16:45:09.946Z,69.80
2019-06-20T16:47:38.053Z,70.70
2019-06-20T16:50:06.195Z,70.80
2019-06-20T16:52:33.173Z,72.40
2019-06-20T16:55:00.517Z,73.40
2019-06-20T16:57:27.472Z,74.00
2019-06-20T16:59:54.837Z,71.80
2019-06-20T17:02:23.307Z,67.30
2019-06-20T17:04:56.477Z,65.30
2019-06-20T17:07:24.430Z,67.00
2019-06-20T17:09:51.475Z,60.70
2019-06-20T17:12:18.488Z,67.80
2019-06-20T17:14:46.753Z,72.60
2019-06-20T17:17:13.709Z,71.50
2019-06-20T17:19:42.185Z,76.30
2019-06-20T17:22:09.620Z,78.30
2019-06-20T17:24:36.771Z,82.60
2019-06-20T17:27:03.923Z,83.20
2019-06-20T17:29:31.992Z,84.40
2019-06-20T17:31:59.144Z,86.80
2019-06-20T17:34:26.293Z,87.20
2019-06-20T17:36:53.750Z,89.20
2019-06-20T17:39:20.901Z,90.20
2019-06-20T17:41:55.073Z,90.70
2019-06-20T17:44:17.659Z,91.30
2019-06-20T17:46:44.815Z,90.70
2019-06-20T17:49:11.959Z,91.00
2019-06-20T17:51:40.133Z,90.70
2019-06-20T17:54:07.489Z,92.00
2019-06-20T17:56:34.638Z,91.70
2019-06-20T17:59:01.789Z,92.10
2019-06-20T18:01:28.939Z,92.00
2019-06-20T18:03:56.089Z,92.50
2019-06-20T18:06:24.083Z,91.10
2019-06-20T18:08:51.637Z,91.40
2019-06-20T18:11:18.807Z,92.20
2019-06-20T18:13:45.922Z,94.00
2019-06-20T18:16:24.692Z,92.40
2019-06-20T18:18:42.680Z,92.20
2019-06-20T18:21:10.137Z,92.50
2019-06-20T18:23:44.658Z,92.70
2019-06-20T18:26:11.807Z,93.90
2019-06-20T18:28:38.963Z,94.30
2019-06-20T18:31:06.108Z,94.00
2019-06-20T18:33:33.269Z,94.90
2019-06-20T18:36:00.439Z,94.30
2019-06-20T18:38:28.173Z,95.30
2019-06-20T18:40:55.323Z,95.20
2019-06-20T18:43:22.473Z,94.20
2019-06-20T18:45:49.629Z,94.30
2019-06-20T18:48:16.773Z,94.70
2019-06-20T18:50:43.924Z,92.60
2019-06-20T18:53:11.088Z,93.50
2019-06-20T18:55:38.226Z,94.60
2019-06-20T18:58:05.376Z,94.20
2019-06-20T19:00:34.992Z,94.40
2019-06-20T19:03:01.754Z,94.60
2019-06-20T19:05:28.989Z,94.50
2019-06-20T19:07:56.124Z,95.20
2019-06-20T19:10:26.083Z,95.30
2019-06-20T19:12:53.202Z,99.50
2019-06-20T19:15:20.869Z,94.60
2019-06-20T19:17:48.107Z,97.90
2019-06-20T19:20:15.562Z,95.40
2019-06-20T19:22:42.714Z,94.60
2019-06-20T19:25:11.532Z,95.70
2019-06-20T19:27:46.088Z,97.60
2019-06-20T19:30:09.312Z,96.20
2019-06-20T19:32:36.241Z,97.90
2019-06-20T19:35:10.169Z,96.20
2019-06-20T19:37:36.781Z,99.00
2019-06-20T19:40:07.070Z,96.00
2019-06-20T19:42:34.045Z,96.30
2019-06-20T19:45:00.993Z,95.50
2019-06-20T19:47:27.945Z,95.20
2019-06-20T19:49:55.190Z,95.00
2019-06-20T19:52:22.379Z,95.20
2019-06-20T19:54:49.490Z,94.30
2019-06-20T19:57:16.498Z,94.90
2019-06-20T19:59:46.135Z,94.90
2019-06-20T20:02:12.289Z,95.50
2019-06-20T20:04:39.243Z,95.80
2019-06-20T20:07:07.186Z,96.20
2019-06-20T20:09:34.135Z,95.70
2019-06-20T20:12:02.705Z,95.80
2019-06-20T20:14:29.807Z,98.60
2019-06-20T20:16:56.848Z,95.70
2019-06-20T20:19:24.067Z,95.70
2019-06-20T20:21:51.213Z,95.00
2019-06-20T20:24:18.123Z,96.40
2019-06-20T20:26:45.351Z,95.80
2019-06-20T20:29:12.306Z,95.90
2019-06-20T20:31:39.253Z,96.20
2019-06-20T20:34:06.231Z,96.20
2019-06-20T20:36:33.392Z,96.00
2019-06-20T20:39:00.372Z,96.20
2019-06-20T20:41:27.320Z,96.00
2019-06-20T20:43:54.644Z,95.60
2019-06-20T20:46:21.652Z,95.50
2019-06-20T20:48:48.636Z,95.40
2019-06-20T20:51:15.572Z,95.70
2019-06-20T20:53:43.681Z,95.50
2019-06-20T20:56:12.190Z,95.10
2019-06-20T20:58:39.705Z,95.30
2019-06-20T21:01:13.065Z,96.10
2019-06-20T21:03:43.371Z,98.60
2019-06-20T21:06:10.379Z,97.00
2019-06-20T21:08:37.837Z,96.50
2019-06-20T21:11:04.876Z,94.80
2019-06-20T21:13:31.853Z,95.20
2019-06-20T21:16:02.469Z,95.50
2019-06-20T21:18:29.833Z,98.80
2019-06-20T21:20:56.875Z,97.30
2019-06-20T21:23:24.160Z,96.50
2019-06-20T21:25:51.193Z,97.00
2019-06-20T21:28:18.151Z,96.90
2019-06-20T21:30:45.102Z,96.80
2019-06-20T21:33:12.130Z,96.90
2019-06-20T21:35:39.752Z,97.10
2019-06-20T21:38:07.243Z,96.40
2019-06-20T21:40:35.867Z,97.00
2019-06-20T21:43:02.837Z,98.30
2019-06-20T21:45:29.802Z,97.10
2019-06-20T21:47:56.757Z,97.00
2019-06-20T21:50:24.716Z,96.70
2019-06-20T21:52:51.743Z,96.90
2019-06-20T21:55:18.801Z,97.30
2019-06-20T21:57:46.713Z,96.90
2019-06-20T22:00:27.583Z,97.60
2019-06-20T22:02:56.351Z,98.20
2019-06-20T22:05:23.314Z,97.70
2019-06-20T22:07:50.244Z,97.30
2019-06-20T22:10:17.735Z,97.20
2019-06-20T22:12:44.804Z,98.00
2019-06-20T22:15:11.864Z,97.00
2019-06-20T22:20:28.010Z,97.40
2019-06-20T22:22:54.993Z,97.30
2019-06-20T22:25:22.045Z,97.30
2019-06-20T22:27:49.004Z,97.50
2019-06-20T22:30:19.356Z,97.40
2019-06-20T22:32:46.325Z,98.00
2019-06-20T22:35:13.725Z,97.50
2019-06-20T22:37:40.728Z,98.00
2019-06-20T22:40:08.961Z,97.20
2019-06-20T22:42:35.907Z,98.00
2019-06-20T22:45:06.980Z,96.00
2019-06-20T22:47:34.892Z,97.90
2019-06-20T22:50:04.201Z,96.20
2019-06-20T22:52:31.136Z,97.80
2019-06-20T22:54:58.091Z,96.80
2019-06-20T22:57:25.037Z,96.70
2019-06-20T22:59:51.983Z,96.30
2019-06-20T23:02:18.948Z,96.40
2019-06-20T23:04:45.913Z,97.10
2019-06-20T23:07:14.057Z,97.30
2019-06-20T23:09:40.997Z,97.20
2019-06-20T23:12:07.958Z,97.30
2019-06-20T23:14:34.916Z,96.90
2019-06-20T23:19:57.819Z,96.80
2019-06-20T23:22:24.910Z,97.00
2019-06-20T23:24:51.935Z,96.90
2019-06-20T23:27:18.989Z,97.20
2019-06-20T23:29:46.026Z,96.80
2019-06-20T23:32:13.088Z,96.50
2019-06-20T23:34:40.219Z,97.00
2019-06-20T23:37:12.559Z,96.90
2019-06-20T23:39:36.470Z,97.20
2019-06-20T23:42:03.540Z,97.80
2019-06-20T23:44:30.553Z,97.40
2019-06-20T23:46:57.603Z,97.40
2019-06-20T23:49:24.645Z,97.00
2019-06-20T23:51:56.535Z,96.80
2019-06-20T23:54:23.580Z,96.90
2019-06-20T23:56:50.635Z,97.10
2019-06-20T23:59:17.651Z,97.50
